Time;durP1;ratioP1;P1;durP2;ratioP2;P2;SDS_P1;SDS_P2;PMS_P1;PMS_P2;Temp;Humidity;BMP_temperature;BMP_pressure;BME280_temperature;BME280_humidity;BME280_pressure;Samples;Min_cycle;Max_cycle;Signal;HPM_P1;HPM_P2
2021/04/18 00:00:59;;;;;;;7.88;5.18;;;5.00;15.00;;;;;;5019353;28;20053;-72
2021/04/18 00:03:26;;;;;;;5.43;4.50;;;4.80;15.10;;;;;;5026010;28;20049;-72
2021/04/18 00:05:53;;;;;;;7.30;4.88;;;4.90;16.00;;;;;;5021810;28;20128;-72
2021/04/18 00:08:20;;;;;;;7.75;5.00;;;4.90;14.90;;;;;;5027231;28;20049;-72
2021/04/18 00:10:48;;;;;;;7.90;5.63;;;4.90;15.40;;;;;;5023436;28;20062;-72
2021/04/18 00:13:16;;;;;;;7.28;5.30;;;4.90;15.30;;;;;;5023427;28;20051;-72
2021/04/18 00:15:43;;;;;;;7.38;5.40;;;4.90;16.00;;;;;;5024712;28;20045;-72
2021/04/18 00:18:12;;;;;;;7.35;5.65;;;4.90;16.00;;;;;;5027932;28;20037;-72
2021/04/18 00:20:39;;;;;;;10.55;6.07;;;4.90;16.60;;;;;;5022751;28;20145;-73
2021/04/18 00:23:06;;;;;;;6.32;5.35;;;4.90;16.10;;;;;;5022731;28;20503;-72
2021/04/18 00:25:33;;;;;;;7.78;5.15;;;4.80;16.40;;;;;;5026371;28;20045;-72
2021/04/18 00:28:01;;;;;;;7.72;5.80;;;4.80;17.20;;;;;;5028906;28;20045;-71
2021/04/18 00:30:29;;;;;;;7.03;5.20;;;4.90;16.70;;;;;;5024778;28;20565;-72
2021/04/18 00:32:59;;;;;;;6.85;5.70;;;4.90;16.00;;;;;;5026765;28;21536;-72
2021/04/18 00:35:26;;;;;;;8.68;5.53;;;4.90;17.20;;;;;;5029694;28;20073;-72
2021/04/18 00:37:53;;;;;;;6.68;5.35;;;4.80;16.50;;;;;;5030110;28;20045;-72
2021/04/18 00:40:22;;;;;;;7.18;5.97;;;4.80;16.80;;;;;;5032580;28;20085;-72
2021/04/18 00:42:49;;;;;;;7.50;5.60;;;4.80;17.10;;;;;;5032044;28;20171;-73
2021/04/18 00:45:19;;;;;;;8.10;5.28;;;4.80;17.00;;;;;;5033843;28;20050;-72
2021/04/18 00:47:48;;;;;;;7.30;5.75;;;4.70;18.60;;;;;;5033569;28;20550;-72
2021/04/18 00:50:21;;;;;;;8.13;5.75;;;4.80;18.10;;;;;;5032875;28;20049;-73
2021/04/18 00:52:49;;;;;;;7.65;5.60;;;4.80;17.50;;;;;;5031088;28;20140;-71
2021/04/18 00:55:16;;;;;;;7.13;5.68;;;4.80;18.10;;;;;;5026072;28;20045;-72
2021/04/18 00:57:44;;;;;;;7.72;6.30;;;4.70;17.90;;;;;;5031351;28;20053;-72
2021/04/18 01:00:13;;;;;;;7.63;6.03;;;4.70;18.50;;;;;;5026666;28;20064;-72
2021/04/18 01:02:42;;;;;;;6.30;5.25;;;4.70;18.60;;;;;;5028946;28;20108;-71
2021/04/18 01:05:10;;;;;;;9.48;6.40;;;4.70;18.70;;;;;;5032934;28;20063;-72
2021/04/18 01:07:37;;;;;;;6.97;6.00;;;4.70;18.80;;;;;;5029408;28;20073;-72
2021/04/18 01:10:07;;;;;;;9.75;6.32;;;4.70;18.80;;;;;;5026008;28;20053;-72
2021/04/18 01:12:34;;;;;;;8.95;6.18;;;4.70;18.70;;;;;;5026611;28;20055;-72
2021/04/18 01:15:01;;;;;;;7.70;6.10;;;4.60;19.10;;;;;;5029486;28;20134;-72
2021/04/18 01:17:29;;;;;;;8.02;6.35;;;4.60;19.30;;;;;;5027646;28;20727;-73
2021/04/18 01:19:57;;;;;;;9.15;6.00;;;4.60;19.40;;;;;;5028607;28;20145;-72
2021/04/18 01:22:25;;;;;;;7.30;5.88;;;4.60;19.00;;;;;;5023709;28;20053;-72
2021/04/18 01:24:54;;;;;;;8.98;6.57;;;4.70;18.90;;;;;;5027112;28;20107;-72
2021/04/18 01:27:23;;;;;;;8.23;6.35;;;4.70;18.70;;;;;;5027478;28;20041;-72
2021/04/18 01:29:50;;;;;;;7.32;5.93;;;4.70;18.20;;;;;;5027112;28;20063;-73
2021/04/18 01:32:21;;;;;;;7.55;6.30;;;4.70;18.50;;;;;;5024436;28;20053;-73
2021/04/18 01:34:49;;;;;;;7.72;5.72;;;4.80;18.50;;;;;;5025944;28;20067;-72
2021/04/18 01:37:19;;;;;;;8.27;6.07;;;4.70;18.20;;;;;;5030748;28;20049;-72
2021/04/18 01:39:47;;;;;;;8.10;6.38;;;4.70;18.70;;;;;;5028094;28;20049;-72
2021/04/18 01:42:15;;;;;;;9.27;6.93;;;4.70;19.70;;;;;;5023119;28;20163;-73
2021/04/18 01:44:43;;;;;;;8.15;6.70;;;4.70;19.40;;;;;;5027136;28;20053;-73
2021/04/18 01:47:10;;;;;;;8.55;6.43;;;4.70;19.40;;;;;;5024265;28;20567;-72
2021/04/18 01:49:37;;;;;;;9.68;6.57;;;4.70;19.40;;;;;;5031993;28;20442;-72
2021/04/18 01:52:04;;;;;;;8.10;6.50;;;4.70;19.40;;;;;;5030240;28;20053;-70
2021/04/18 01:54:31;;;;;;;8.50;6.05;;;4.70;19.40;;;;;;5029910;28;20059;-71
2021/04/18 01:56:59;;;;;;;7.88;6.35;;;4.70;19.40;;;;;;5023732;28;20496;-72
2021/04/18 01:59:26;;;;;;;8.25;6.55;;;4.70;19.40;;;;;;5026212;28;20052;-74
2021/04/18 02:01:53;;;;;;;10.23;6.82;;;4.60;19.70;;;;;;5021854;28;20051;-72
2021/04/18 02:04:22;;;;;;;9.00;7.03;;;4.60;20.10;;;;;;5028590;28;20041;-72
2021/04/18 02:06:49;;;;;;;9.40;7.10;;;4.50;21.20;;;;;;5030319;28;20102;-71
2021/04/18 02:09:16;;;;;;;9.20;7.40;;;4.40;21.30;;;;;;5029665;28;20053;-72
2021/04/18 02:11:43;;;;;;;10.45;7.15;;;4.50;21.90;;;;;;5021244;28;20053;-72
2021/04/18 02:14:11;;;;;;;9.02;7.45;;;4.40;22.20;;;;;;5026412;28;20132;-72
2021/04/18 02:16:38;;;;;;;11.07;8.00;;;4.40;22.60;;;;;;5029969;28;20045;-71
2021/04/18 02:19:05;;;;;;;10.80;7.85;;;4.40;22.70;;;;;;5028306;28;20049;-71
2021/04/18 02:21:32;;;;;;;11.20;7.97;;;4.40;22.70;;;;;;5022361;28;20051;-72
2021/04/18 02:23:59;;;;;;;10.90;7.47;;;4.40;22.60;;;;;;5027583;28;20515;-73
2021/04/18 02:26:26;;;;;;;10.90;8.05;;;4.40;22.60;;;;;;5028217;28;20049;-72
2021/04/18 02:28:53;;;;;;;11.02;8.25;;;4.40;23.50;;;;;;5028472;28;20068;-72
2021/04/18 02:31:21;;;;;;;10.88;7.57;;;4.50;22.70;;;;;;5023633;28;20539;-71
2021/04/18 02:33:48;;;;;;;10.18;7.22;;;4.50;22.70;;;;;;5026076;28;20053;-72
2021/04/18 02:36:15;;;;;;;11.13;7.90;;;4.50;22.70;;;;;;5026712;28;20072;-71
2021/04/18 02:38:41;;;;;;;10.38;7.78;;;4.50;22.70;;;;;;5029829;28;20049;-71
2021/04/18 02:41:09;;;;;;;11.00;7.72;;;4.50;22.70;;;;;;5023025;28;20045;-71
2021/04/18 02:43:35;;;;;;;10.18;7.55;;;4.50;22.80;;;;;;5025247;28;20045;-71
2021/04/18 02:46:03;;;;;;;10.80;7.53;;;4.60;22.80;;;;;;5030085;28;20064;-71
2021/04/18 02:48:31;;;;;;;9.68;7.55;;;4.60;22.30;;;;;;5031471;28;20107;-72
2021/04/18 02:50:58;;;;;;;10.55;7.78;;;4.60;22.00;;;;;;5029815;28;20049;-72
2021/04/18 02:53:25;;;;;;;9.85;7.78;;;4.60;22.60;;;;;;5030220;28;20049;-72
2021/04/18 02:55:51;;;;;;;10.65;7.90;;;4.60;21.80;;;;;;5030095;28;20563;-73
2021/04/18 02:58:18;;;;;;;10.48;7.43;;;4.60;22.30;;;;;;5025750;28;20156;-72
2021/04/18 03:00:45;;;;;;;10.25;8.18;;;4.60;20.10;;;;;;5024223;28;20060;-72
2021/04/18 03:03:12;;;;;;;11.43;7.38;;;4.60;18.90;;;;;;5024942;28;20046;-72
2021/04/18 03:05:40;;;;;;;10.88;7.93;;;4.60;17.80;;;;;;5027988;28;20115;-72
2021/04/18 03:08:08;;;;;;;12.88;7.80;;;4.60;18.20;;;;;;5025728;28;20049;-72
2021/04/18 03:10:35;;;;;;;11.02;7.60;;;4.60;18.80;;;;;;5023236;28;20050;-72
2021/04/18 03:13:02;;;;;;;12.75;8.25;;;4.70;18.40;;;;;;5023945;28;20048;-71
2021/04/18 03:15:29;;;;;;;10.90;7.90;;;4.70;18.70;;;;;;5026635;28;20414;-71
2021/04/18 03:17:57;;;;;;;10.00;7.50;;;4.70;19.40;;;;;;5026474;28;20041;-71
2021/04/18 03:20:24;;;;;;;10.68;8.32;;;4.70;19.40;;;;;;5027077;28;20136;-72
2021/04/18 03:22:52;;;;;;;10.95;8.43;;;4.70;19.40;;;;;;5029653;28;20045;-71
2021/04/18 03:25:19;;;;;;;9.85;7.65;;;4.70;19.80;;;;;;5030637;28;20053;-71
2021/04/18 03:27:46;;;;;;;10.32;7.68;;;4.60;19.70;;;;;;5030669;28;20053;-72
2021/04/18 03:30:14;;;;;;;9.80;7.93;;;4.60;20.60;;;;;;5029387;28;20045;-72
2021/04/18 03:32:41;;;;;;;10.82;8.27;;;4.60;21.50;;;;;;5028996;28;20495;-72
2021/04/18 03:35:09;;;;;;;10.95;8.35;;;4.50;21.70;;;;;;5026860;28;20056;-73
2021/04/18 03:37:36;;;;;;;11.38;8.35;;;4.50;22.00;;;;;;5027189;28;20037;-72
2021/04/18 03:40:05;;;;;;;10.65;7.63;;;4.50;22.00;;;;;;5023947;28;20057;-72
2021/04/18 03:42:32;;;;;;;13.13;8.68;;;4.50;22.00;;;;;;5021613;28;20045;-72
2021/04/18 03:45:02;;;;;;;10.65;8.05;;;4.60;22.80;;;;;;5023719;28;20128;-71
2021/04/18 03:47:29;;;;;;;9.65;8.00;;;4.50;22.20;;;;;;5026617;28;20060;-71
2021/04/18 03:49:56;;;;;;;13.77;9.18;;;4.50;22.40;;;;;;5025408;28;20049;-72
2021/04/18 03:52:23;;;;;;;10.38;8.13;;;4.50;22.60;;;;;;5022015;28;20049;-72
2021/04/18 03:54:50;;;;;;;12.75;8.40;;;4.50;22.70;;;;;;5024115;28;20056;-71
2021/04/18 03:57:18;;;;;;;10.77;7.57;;;4.60;22.70;;;;;;5026122;28;20056;-72
2021/04/18 03:59:45;;;;;;;13.18;8.50;;;4.60;21.40;;;;;;5022858;28;20057;-72
2021/04/18 04:02:12;;;;;;;12.80;8.70;;;4.60;21.40;;;;;;5021019;28;20057;-71
2021/04/18 04:04:39;;;;;;;10.73;8.20;;;4.60;22.00;;;;;;5030622;28;20057;-73
2021/04/18 04:07:06;;;;;;;12.80;9.23;;;4.60;21.40;;;;;;5029617;28;20107;-72
2021/04/18 04:09:33;;;;;;;11.93;8.32;;;4.60;19.90;;;;;;5029468;28;20045;-72
2021/04/18 04:12:00;;;;;;;11.20;8.25;;;4.60;19.50;;;;;;5024839;28;20420;-73
2021/04/18 04:14:28;;;;;;;11.45;8.35;;;4.60;19.80;;;;;;5030582;28;20053;-72
2021/04/18 04:16:55;;;;;;;9.98;7.85;;;4.60;19.40;;;;;;5029603;28;20049;-72
2021/04/18 04:19:22;;;;;;;13.75;8.65;;;4.60;19.30;;;;;;5029536;28;20062;-73
2021/04/18 04:21:49;;;;;;;11.23;8.48;;;4.60;20.10;;;;;;5026345;28;20057;-72
2021/04/18 04:24:16;;;;;;;12.65;8.60;;;4.60;20.10;;;;;;5031577;28;20147;-72
2021/04/18 04:26:43;;;;;;;11.98;8.40;;;4.70;18.90;;;;;;5030015;28;20045;-73
2021/04/18 04:29:10;;;;;;;13.07;8.48;;;4.70;17.60;;;;;;5027560;28;20045;-73
2021/04/18 04:31:38;;;;;;;16.80;8.00;;;4.60;17.50;;;;;;5025359;28;20053;-72
2021/04/18 04:34:05;;;;;;;12.93;8.48;;;4.70;17.70;;;;;;5030072;28;20080;-71
2021/04/18 04:36:32;;;;;;;11.27;8.60;;;4.60;16.60;;;;;;5029906;28;20056;-72
2021/04/18 04:38:59;;;;;;;11.75;8.25;;;4.70;16.90;;;;;;5028561;28;20045;-71
2021/04/18 04:41:26;;;;;;;12.48;8.82;;;4.60;17.30;;;;;;5027752;28;20057;-70
2021/04/18 04:43:52;;;;;;;13.25;8.70;;;4.60;17.40;;;;;;5027186;28;20045;-71
2021/04/18 04:46:20;;;;;;;12.70;8.77;;;4.60;17.30;;;;;;5030080;28;20049;-72
2021/04/18 04:48:48;;;;;;;15.15;8.80;;;4.70;17.80;;;;;;5028383;28;20048;-72
2021/04/18 04:51:15;;;;;;;11.05;8.27;;;4.70;17.70;;;;;;5025722;28;20091;-72
2021/04/18 04:53:41;;;;;;;13.05;9.02;;;4.70;17.70;;;;;;5028570;28;20471;-72
2021/04/18 04:56:08;;;;;;;12.50;8.52;;;4.70;18.50;;;;;;5029220;28;20049;-72
2021/04/18 04:58:35;;;;;;;11.25;8.88;;;4.60;17.60;;;;;;5031842;28;20041;-71
2021/04/18 05:01:03;;;;;;;11.98;8.35;;;4.60;19.00;;;;;;5027675;28;20076;-71
2021/04/18 05:03:30;;;;;;;13.80;8.98;;;4.60;19.00;;;;;;5028931;28;20053;-71
2021/04/18 05:05:58;;;;;;;13.20;8.95;;;4.70;19.40;;;;;;5030276;28;20167;-71
2021/04/18 05:08:24;;;;;;;13.60;9.18;;;4.70;18.90;;;;;;5031647;28;20048;-72
2021/04/18 05:10:51;;;;;;;12.38;8.90;;;4.80;18.40;;;;;;5027084;28;20057;-72
2021/04/18 05:13:18;;;;;;;12.18;8.75;;;4.90;17.10;;;;;;5027022;28;20400;-72
2021/04/18 05:15:45;;;;;;;10.30;8.07;;;5.00;15.60;;;;;;5029857;28;20045;-73
2021/04/18 05:18:12;;;;;;;10.93;8.00;;;4.90;16.10;;;;;;5031450;28;20052;-73
2021/04/18 05:20:39;;;;;;;12.95;8.38;;;4.90;16.00;;;;;;5027003;28;20825;-73
2021/04/18 05:23:07;;;;;;;11.65;8.50;;;5.00;16.10;;;;;;5029254;28;20141;-70
2021/04/18 05:25:33;;;;;;;14.65;9.02;;;5.00;15.90;;;;;;5028890;28;20053;-72
2021/04/18 05:28:00;;;;;;;10.35;8.40;;;4.90;15.10;;;;;;5030697;28;20049;-72
2021/04/18 05:30:27;;;;;;;10.40;8.00;;;5.00;15.70;;;;;;5025236;28;20057;-72
2021/04/18 05:32:54;;;;;;;12.32;8.40;;;5.00;16.10;;;;;;5028439;28;20448;-72
2021/04/18 05:35:22;;;;;;;12.40;8.45;;;5.00;16.10;;;;;;5028533;28;20396;-73
2021/04/18 05:37:49;;;;;;;10.80;7.85;;;5.00;16.60;;;;;;5031128;28;20041;-71
2021/04/18 05:40:17;;;;;;;11.98;8.45;;;5.10;16.20;;;;;;5026058;28;20065;-72
2021/04/18 05:42:43;;;;;;;12.73;8.32;;;5.20;14.30;;;;;;5028236;28;20057;-72
2021/04/18 05:45:11;;;;;;;10.55;7.68;;;5.30;14.00;;;;;;5029912;28;20053;-72
2021/04/18 05:47:46;;;;;;;12.23;8.30;;;5.30;13.10;;;;;;5029149;28;20068;-72
2021/04/18 05:50:13;;;;;;;12.13;8.07;;;5.30;13.30;;;;;;5025739;28;20056;-72
2021/04/18 05:52:40;;;;;;;11.20;8.10;;;5.40;12.80;;;;;;5025162;28;20052;-72
2021/04/18 05:55:08;;;;;;;13.48;8.73;;;5.60;12.10;;;;;;5029009;28;20416;-72
2021/04/18 05:57:36;;;;;;;10.80;8.10;;;5.60;10.40;;;;;;5027565;28;20045;-72
2021/04/18 06:00:05;;;;;;;18.10;8.82;;;5.60;10.30;;;;;;5028704;28;20045;-73
2021/04/18 06:02:32;;;;;;;10.68;7.68;;;5.80;9.80;;;;;;5024394;28;20076;-72
2021/04/18 06:04:59;;;;;;;10.88;8.32;;;5.70;10.50;;;;;;5029310;28;20127;-71
2021/04/18 06:07:26;;;;;;;12.10;8.48;;;5.80;10.20;;;;;;5028805;28;20049;-72
2021/04/18 06:09:53;;;;;;;11.25;7.90;;;5.90;9.60;;;;;;5027250;28;20624;-72
2021/04/18 06:12:20;;;;;;;13.32;8.55;;;6.00;8.50;;;;;;5023961;28;20050;-71
2021/04/18 06:14:47;;;;;;;13.70;8.10;;;6.10;6.70;;;;;;5028384;28;20064;-71
2021/04/18 06:17:14;;;;;;;12.07;8.07;;;6.10;6.70;;;;;;5027887;28;20091;-71
2021/04/18 06:19:41;;;;;;;12.90;7.88;;;6.10;4.40;;;;;;5027491;28;20041;-72
2021/04/18 06:22:08;;;;;;;14.68;8.65;;;6.10;4.10;;;;;;5023843;28;20045;-71
2021/04/18 06:24:35;;;;;;;14.57;8.20;;;6.00;6.40;;;;;;5026048;28;20696;-71
2021/04/18 06:27:02;;;;;;;10.40;7.50;;;5.70;7.60;;;;;;5027251;28;20060;-71
2021/04/18 06:29:29;;;;;;;18.70;8.60;;;5.60;8.40;;;;;;5025700;28;20586;-72
2021/04/18 06:31:56;;;;;;;13.10;9.15;;;5.70;9.30;;;;;;5023667;28;20061;-71
2021/04/18 06:34:23;;;;;;;12.40;8.85;;;5.90;8.60;;;;;;5026705;28;20068;-71
2021/04/18 06:36:51;;;;;;;11.23;8.38;;;5.90;7.90;;;;;;5027542;28;20503;-71
2021/04/18 06:39:18;;;;;;;11.00;8.35;;;6.30;7.10;;;;;;5026768;28;20038;-72
2021/04/18 06:41:51;;;;;;;11.80;8.48;;;6.50;4.90;;;;;;5023541;28;20049;-72
2021/04/18 06:44:18;;;;;;;11.13;7.88;;;6.40;4.80;;;;;;5029089;28;20061;-72
2021/04/18 06:46:45;;;;;;;11.05;8.00;;;6.50;4.20;;;;;;5027527;28;20049;-71
2021/04/18 06:49:14;;;;;;;11.82;9.27;;;6.50;3.50;;;;;;5026720;28;20052;-71
2021/04/18 06:51:41;;;;;;;12.05;8.48;;;6.50;3.50;;;;;;5024585;28;20067;-72
2021/04/18 06:54:10;;;;;;;13.00;8.15;;;6.60;2.60;;;;;;5026343;28;20422;-71
2021/04/18 06:56:36;;;;;;;10.75;8.35;;;6.40;3.30;;;;;;5028578;28;20525;-71
2021/04/18 06:59:04;;;;;;;10.60;8.00;;;6.70;2.40;;;;;;5028368;28;20497;-72
2021/04/18 07:01:31;;;;;;;10.70;7.75;;;6.70;2.60;;;;;;5026038;28;20050;-73
2021/04/18 07:04:09;;;;;;;11.02;8.75;;;6.60;2.60;;;;;;5026521;28;20060;-72
2021/04/18 07:06:41;;;;;;;13.55;7.93;;;6.70;1.90;;;;;;5026953;28;20059;-71
2021/04/18 07:09:09;;;;;;;10.63;8.05;;;6.70;1.00;;;;;;5026569;28;20143;-71
2021/04/18 07:11:47;;;;;;;11.45;8.60;;;6.60;2.50;;;;;;5023681;28;20041;-72
2021/04/18 07:14:22;;;;;;;12.73;8.90;;;6.60;1.70;;;;;;5028823;28;20057;-71
2021/04/18 07:16:49;;;;;;;;;;;6.80;1.00;;;;;;5028206;28;20053;-71
2021/04/18 07:19:21;;;;;;;11.18;8.57;;;6.90;1.10;;;;;;5026611;28;19920;-72
2021/04/18 07:21:51;;;;;;;12.05;8.48;;;6.70;1.30;;;;;;5023174;28;20045;-71
2021/04/18 07:24:19;;;;;;;12.43;9.23;;;6.60;2.30;;;;;;5026647;28;20447;-71
2021/04/18 07:26:55;;;;;;;15.32;8.85;;;6.80;1.00;;;;;;5026326;28;20049;-73
2021/04/18 07:29:24;;;;;;;13.88;8.32;;;7.10;1.30;;;;;;5027277;28;20160;-71
2021/04/18 07:31:51;;;;;;;12.63;8.40;;;7.20;1.00;;;;;;5022047;28;20056;-72
2021/04/18 07:34:19;;;;;;;11.82;7.55;;;7.10;1.00;;;;;;5028905;28;20057;-72
2021/04/18 07:36:47;;;;;;;14.13;8.00;;;7.30;1.00;;;;;;5026319;28;20041;-72
2021/04/18 07:39:16;;;;;;;13.02;7.80;;;7.50;1.00;;;;;;5030011;28;20399;-72
2021/04/18 07:41:45;;;;;;;13.73;8.02;;;7.30;1.00;;;;;;5026593;28;20048;-71
2021/04/18 07:44:15;;;;;;;10.48;7.93;;;7.40;1.00;;;;;;5031698;28;20509;-72
2021/04/18 07:46:47;;;;;;;13.20;8.50;;;7.40;1.00;;;;;;5030055;28;20053;-72
2021/04/18 07:49:15;;;;;;;10.68;7.82;;;7.60;1.00;;;;;;5031354;28;20045;-72
2021/04/18 07:51:44;;;;;;;11.90;8.38;;;7.30;1.00;;;;;;5031216;28;20045;-71
2021/04/18 07:54:12;;;;;;;13.27;8.70;;;7.30;1.00;;;;;;5030959;28;20045;-72
2021/04/18 07:56:43;;;;;;;14.13;8.80;;;6.70;1.00;;;;;;5030517;28;20060;-71
2021/04/18 07:59:13;;;;;;;15.55;9.18;;;6.80;1.00;;;;;;5031496;28;20053;-71
2021/04/18 08:01:40;;;;;;;14.40;8.93;;;6.90;1.00;;;;;;5029920;28;20060;-72
2021/04/18 08:04:09;;;;;;;12.18;7.70;;;7.10;1.00;;;;;;5029787;28;20056;-73
2021/04/18 08:06:39;;;;;;;10.52;7.75;;;7.40;1.00;;;;;;5030135;28;20060;-72
2021/04/18 08:09:16;;;;;;;14.32;8.15;;;7.40;1.00;;;;;;5033479;28;20384;-72
2021/04/18 08:12:07;;;;;;;12.55;8.10;;;7.40;1.00;;;;;;5033257;28;20045;-73
2021/04/18 08:14:36;;;;;;;12.88;8.75;;;7.70;1.00;;;;;;5033268;28;20053;-72
2021/04/18 08:17:04;;;;;;;18.33;8.75;;;7.70;1.00;;;;;;5034218;28;20507;-71
2021/04/18 08:19:32;;;;;;;11.90;7.70;;;7.60;1.00;;;;;;5033481;28;20041;-72
2021/04/18 08:21:59;;;;;;;11.38;7.80;;;7.90;1.00;;;;;;5030246;28;20499;-72
2021/04/18 08:24:37;;;;;;;14.23;8.07;;;8.10;1.00;;;;;;5033307;28;20049;-72
2021/04/18 08:27:08;;;;;;;11.75;7.72;;;8.20;1.00;;;;;;5033024;28;20049;-72
2021/04/18 08:29:35;;;;;;;12.20;7.38;;;8.50;1.00;;;;;;5033239;28;20041;-72
2021/04/18 08:32:07;;;;;;;10.10;7.13;;;7.90;1.00;;;;;;5030369;28;20535;-73
2021/04/18 08:34:38;;;;;;;10.50;8.07;;;7.70;1.00;;;;;;5033036;28;20119;-73
2021/04/18 08:37:12;;;;;;;10.43;7.85;;;8.00;1.00;;;;;;5033301;28;20405;-74
2021/04/18 08:39:40;;;;;;;12.18;8.40;;;8.00;1.00;;;;;;5033430;28;20045;-73
2021/04/18 08:42:22;;;;;;;10.77;7.72;;;8.30;1.00;;;;;;5029565;28;20051;-75
2021/04/18 08:44:50;;;;;;;11.43;7.63;;;8.10;1.00;;;;;;5032887;28;20061;-72
2021/04/18 08:47:19;;;;;;;14.75;8.07;;;8.70;1.00;;;;;;5032596;28;20055;-72
2021/04/18 08:49:50;;;;;;;11.80;7.10;;;9.40;1.00;;;;;;5028744;28;20041;-73
2021/04/18 08:52:21;;;;;;;10.07;6.43;;;9.60;1.00;;;;;;5030227;28;20061;-73
2021/04/18 08:54:50;;;;;;;20.25;7.10;;;9.40;1.00;;;;;;5032260;28;20514;-73
2021/04/18 08:57:19;;;;;;;10.85;6.25;;;8.40;1.00;;;;;;5032987;28;20064;-72
2021/04/18 08:59:49;;;;;;;9.57;6.00;;;9.10;1.00;;;;;;5032675;28;20049;-72
2021/04/18 09:02:17;;;;;;;9.73;6.32;;;9.20;1.00;;;;;;5029704;28;20060;-73
2021/04/18 09:04:45;;;;;;;10.93;6.47;;;9.30;1.00;;;;;;5032416;28;20526;-73
2021/04/18 09:07:13;;;;;;;9.20;5.57;;;9.70;1.00;;;;;;5032860;28;20115;-73
2021/04/18 09:09:41;;;;;;;8.25;5.63;;;9.20;1.00;;;;;;5032481;28;20483;-73
2021/04/18 09:12:09;;;;;;;9.52;5.90;;;9.50;1.00;;;;;;5029518;28;20045;-72
2021/04/18 09:14:40;;;;;;;11.82;6.13;;;9.60;1.00;;;;;;5032567;28;20045;-72
2021/04/18 09:17:12;;;;;;;8.82;6.40;;;9.60;1.00;;;;;;5031153;28;20056;-71
2021/04/18 09:19:41;;;;;;;11.63;6.53;;;9.80;1.00;;;;;;5032414;28;20132;-72
2021/04/18 09:22:10;;;;;;;11.88;6.65;;;8.50;1.00;;;;;;5029987;28;20756;-72
2021/04/18 09:24:43;;;;;;;8.27;6.63;;;8.50;1.00;;;;;;5032402;28;20045;-71
2021/04/18 09:27:14;;;;;;;12.18;6.55;;;8.70;1.00;;;;;;5032662;28;20072;-72
2021/04/18 09:29:44;;;;;;;12.63;6.72;;;9.30;1.00;;;;;;5032323;28;20049;-72
2021/04/18 09:32:13;;;;;;;12.27;7.28;;;9.60;1.00;;;;;;5029327;28;20447;-73
2021/04/18 09:34:43;;;;;;;9.70;6.53;;;9.80;1.00;;;;;;5032160;28;20049;-73
2021/04/18 09:37:14;;;;;;;9.13;6.53;;;10.10;1.00;;;;;;5031483;28;20053;-73
2021/04/18 09:39:41;;;;;;;9.88;7.10;;;10.10;1.00;;;;;;5032155;28;20049;-73
2021/04/18 09:42:09;;;;;;;9.13;6.78;;;9.30;1.00;;;;;;5028853;28;20415;-72
2021/04/18 09:44:42;;;;;;;12.27;6.88;;;9.20;1.00;;;;;;5032470;28;20227;-73
2021/04/18 09:47:23;;;;;;;12.13;7.35;;;9.10;1.00;;;;;;5029978;28;20049;-72
2021/04/18 09:49:53;;;;;;;10.95;6.78;;;9.60;1.00;;;;;;5028863;28;20060;-72
2021/04/18 09:52:29;;;;;;;11.93;7.05;;;9.20;1.00;;;;;;5023733;28;20561;-73
2021/04/18 09:55:12;;;;;;;11.95;7.15;;;9.40;1.00;;;;;;5026235;28;20519;-73
2021/04/18 09:57:44;;;;;;;10.98;7.28;;;9.90;1.00;;;;;;5030247;28;20073;-73
2021/04/18 10:00:16;;;;;;;13.00;7.35;;;9.90;1.00;;;;;;5023636;28;20153;-73
2021/04/18 10:02:57;;;;;;;9.15;7.03;;;9.70;1.00;;;;;;5025277;28;20067;-71
2021/04/18 10:05:25;;;;;;;13.57;7.53;;;9.10;1.00;;;;;;5028579;28;20049;-71
2021/04/18 10:08:11;;;;;;;9.63;7.15;;;9.90;1.00;;;;;;5029976;28;20055;-72
2021/04/18 10:10:39;;;;;;;10.65;7.40;;;10.00;1.00;;;;;;5025879;28;20491;-74
2021/04/18 10:13:06;;;;;;;8.98;7.25;;;10.30;1.00;;;;;;5024669;28;20058;-73
2021/04/18 10:15:33;;;;;;;10.82;7.63;;;9.90;1.00;;;;;;5027527;28;20057;-72
2021/04/18 10:18:09;;;;;;;13.02;7.68;;;9.60;1.00;;;;;;5027787;28;20103;-71
2021/04/18 10:20:36;;;;;;;9.90;7.55;;;9.40;1.00;;;;;;5026968;28;20045;-72
2021/04/18 10:23:08;;;;;;;10.73;7.60;;;9.50;1.00;;;;;;5024416;28;20056;-72
2021/04/18 10:25:37;;;;;;;10.48;7.50;;;9.60;1.00;;;;;;5028845;28;20049;-73
2021/04/18 10:28:06;;;;;;;10.77;7.78;;;9.50;1.00;;;;;;5028790;28;20529;-73
2021/04/18 10:30:33;;;;;;;13.25;7.28;;;9.80;1.00;;;;;;5026954;28;20045;-72
2021/04/18 10:33:00;;;;;;;10.30;7.93;;;10.30;1.00;;;;;;5025173;28;20145;-73
2021/04/18 10:35:27;;;;;;;13.93;7.22;;;10.30;1.00;;;;;;5029805;28;20049;-73
2021/04/18 10:37:54;;;;;;;10.75;7.53;;;10.10;1.00;;;;;;5028828;28;20056;-73
2021/04/18 10:40:22;;;;;;;12.38;7.95;;;10.60;1.00;;;;;;5025377;28;20060;-73
2021/04/18 10:42:50;;;;;;;14.32;7.70;;;11.10;1.00;;;;;;5025587;28;20057;-73
2021/04/18 10:45:18;;;;;;;13.43;7.88;;;10.90;1.00;;;;;;5027709;28;20132;-73
2021/04/18 10:47:45;;;;;;;7.95;6.57;;;11.20;1.00;;;;;;5028079;28;20057;-72
2021/04/18 10:50:14;;;;;;;10.68;7.72;;;10.50;1.00;;;;;;5025180;28;20098;-72
2021/04/18 10:52:41;;;;;;;11.77;7.82;;;9.80;1.00;;;;;;5025148;28;20144;-72
2021/04/18 10:55:10;;;;;;;10.52;6.85;;;10.70;1.00;;;;;;5026507;28;20706;-73
2021/04/18 10:57:38;;;;;;;10.45;7.25;;;10.30;1.00;;;;;;5029058;28;20128;-72
2021/04/18 11:00:07;;;;;;;9.93;7.50;;;10.70;1.00;;;;;;5025587;28;20491;-73
2021/04/18 11:02:35;;;;;;;8.93;7.03;;;10.20;1.00;;;;;;5025536;28;20057;-73
2021/04/18 11:05:03;;;;;;;14.30;6.95;;;10.30;1.00;;;;;;5024808;28;20428;-73
2021/04/18 11:07:31;;;;;;;11.10;7.28;;;10.10;1.00;;;;;;5028751;28;20095;-73
2021/04/18 11:09:59;;;;;;;8.57;6.68;;;10.10;1.00;;;;;;5027543;28;20518;-72
2021/04/18 11:12:26;;;;;;;10.05;7.28;;;9.90;1.00;;;;;;5022927;28;20049;-73
2021/04/18 11:14:53;;;;;;;10.57;7.05;;;9.90;1.00;;;;;;5027791;28;20060;-72
2021/04/18 11:17:20;;;;;;;11.15;7.38;;;9.50;1.00;;;;;;5026797;28;20063;-72
2021/04/18 11:19:48;;;;;;;10.18;6.78;;;10.10;1.00;;;;;;5026371;28;20055;-73
2021/04/18 11:22:16;;;;;;;10.43;6.40;;;10.10;1.00;;;;;;5022502;28;20527;-72
2021/04/18 11:24:43;;;;;;;11.77;6.60;;;10.10;1.00;;;;;;5027362;28;20057;-73
2021/04/18 11:27:10;;;;;;;9.40;6.68;;;10.30;1.00;;;;;;5026380;28;20137;-73
2021/04/18 11:29:39;;;;;;;8.40;6.40;;;10.20;1.00;;;;;;5027839;28;20163;-72
2021/04/18 11:32:06;;;;;;;11.23;7.45;;;10.10;1.00;;;;;;5023737;28;20062;-73
2021/04/18 11:34:33;;;;;;;11.00;7.45;;;10.10;1.00;;;;;;5026239;28;20053;-72
2021/04/18 11:37:01;;;;;;;8.68;6.28;;;10.10;1.00;;;;;;5027676;28;20132;-73
2021/04/18 11:39:28;;;;;;;7.85;6.13;;;9.90;1.00;;;;;;5023888;28;20427;-72
2021/04/18 11:41:55;;;;;;;8.07;6.20;;;10.00;1.00;;;;;;5023720;28;20049;-73
2021/04/18 11:44:23;;;;;;;8.27;6.10;;;10.40;1.00;;;;;;5026454;28;20064;-73
2021/04/18 11:46:49;;;;;;;9.05;6.80;;;10.70;1.00;;;;;;5026440;28;20061;-73
2021/04/18 11:49:19;;;;;;;10.15;6.88;;;10.80;1.00;;;;;;5027680;28;20048;-73
2021/04/18 11:51:46;;;;;;;9.07;6.40;;;10.50;1.00;;;;;;5025220;28;20084;-73
2021/04/18 11:54:14;;;;;;;9.20;6.72;;;10.70;1.00;;;;;;5026402;28;20072;-72
2021/04/18 11:56:41;;;;;;;9.27;6.30;;;10.70;1.00;;;;;;5025190;28;20049;-73
2021/04/18 11:59:08;;;;;;;11.90;7.20;;;10.80;1.00;;;;;;5027233;28;20060;-73
2021/04/18 12:01:36;;;;;;;8.30;5.90;;;10.80;1.00;;;;;;5025865;28;20056;-73
2021/04/18 12:04:04;;;;;;;11.40;6.93;;;10.90;1.00;;;;;;5022390;28;20432;-74
2021/04/18 12:06:32;;;;;;;9.63;6.18;;;11.30;1.00;;;;;;5026832;28;20507;-72
2021/04/18 12:08:59;;;;;;;8.43;6.00;;;11.60;1.00;;;;;;5023518;28;20057;-73
2021/04/18 12:11:26;;;;;;;8.68;6.35;;;11.30;1.00;;;;;;5024471;28;20042;-73
2021/04/18 12:13:53;;;;;;;9.68;6.40;;;11.40;1.00;;;;;;5023073;28;20049;-72
2021/04/18 12:16:20;;;;;;;9.05;6.05;;;10.40;1.00;;;;;;5027607;28;20050;-71
2021/04/18 12:18:48;;;;;;;11.30;6.50;;;10.50;1.00;;;;;;5024754;28;20129;-72
2021/04/18 12:21:15;;;;;;;8.73;6.30;;;11.80;1.00;;;;;;5025209;28;20042;-73
2021/04/18 12:23:42;;;;;;;10.25;6.72;;;12.30;1.00;;;;;;5024963;28;20065;-72
2021/04/18 12:26:10;;;;;;;10.32;6.63;;;11.60;1.00;;;;;;5026984;28;20046;-72
2021/04/18 12:28:38;;;;;;;10.77;7.18;;;11.50;1.00;;;;;;5027736;28;20419;-72
2021/04/18 12:31:08;;;;;;;11.85;6.85;;;11.90;1.00;;;;;;5028407;28;20041;-71
2021/04/18 12:33:35;;;;;;;8.43;6.47;;;11.80;1.00;;;;;;5027549;28;20045;-67
2021/04/18 12:36:04;;;;;;;9.70;6.40;;;11.20;1.00;;;;;;5025520;28;20049;-68
2021/04/18 12:38:35;;;;;;;12.60;6.78;;;12.10;1.00;;;;;;5028685;28;20488;-70
2021/04/18 12:41:02;;;;;;;10.35;7.03;;;11.30;1.00;;;;;;5027317;28;20058;-68
2021/04/18 12:43:29;;;;;;;9.05;6.70;;;11.30;1.00;;;;;;5025970;28;20049;-68
2021/04/18 12:45:57;;;;;;;12.27;7.20;;;11.10;1.00;;;;;;5029207;28;20049;-68
2021/04/18 12:48:24;;;;;;;10.20;6.57;;;11.50;1.00;;;;;;5026728;28;20504;-68
2021/04/18 12:50:51;;;;;;;10.88;8.00;;;11.30;1.00;;;;;;5026008;28;20053;-68
2021/04/18 12:53:18;;;;;;;11.38;7.25;;;11.20;1.00;;;;;;5027766;28;20507;-68
2021/04/18 12:55:45;;;;;;;9.80;6.60;;;11.40;1.00;;;;;;5026517;28;20065;-70
2021/04/18 12:58:12;;;;;;;11.05;7.35;;;11.10;1.00;;;;;;5024490;28;20056;-73